台北 の空港の天気 - METARとTAF

台湾桃園国際空港 ( RCTP / TPE ) - 台湾 台北市
飛行場実況気象(Metar)
観測時間09/23 07:00 CST (09/22 23:00 UTC)
風向・風速南南東 3m/s
視程10km以上
天気現象
少しの雲 雲底高度 460m
気温30℃
湿度75%
気圧1014hPa
METARRCTP 222300Z 15006KT 120V190 9999 FEW015 30/25 Q1014 NOSIG RMK A2995
過去の天気等 Google飛行場航空写真 Wunderground天気予報

過去48時間のMETAR

飛行場予報(TAF)
発表時間: 9/23 01:00 CST (9/22 17:00 UTC)
予報対象時間: 23日2時 CST ~ 24日8時 CST
風向・風速南 3m/s
視程10km以上
少しの雲 雲底高度 610m
全天の4割程度の雲 雲底高度 6100m
23日7時 CST ~ 23日9時 CST に徐々に
風向・風速北北東 3m/s
23日12時 CST ~ 23日14時 CST に徐々に
風向・風速北東 8m/s
23日20時 CST ~ 23日22時 CST に徐々に
風向・風速東 5m/s
TAF RCTP 221700Z 2218/2324 18005KT 9999 FEW020 SCT200
BECMG 2223/2301 02005KT
BECMG 2304/2306 05015KT
BECMG 2312/2314 08010KT